sensor_id;sensor_type;location;lat;lon;timestamp;P1;P4;P2;P0;N10;N4;N25;N1;N05;TS
66311;SPS30;53114;51.138;6.008;2022-09-19T00:01:11;1.99;1.94;1.85;1.65;13.18;13.17;13.15;13.02;11.38;0.52
66311;SPS30;53114;51.138;6.008;2022-09-19T00:03:43;2.07;2.03;1.93;1.72;13.72;13.72;13.69;13.56;11.86;0.52
66311;SPS30;53114;51.138;6.008;2022-09-19T00:06:11;2.20;2.13;2.00;1.75;13.97;13.96;13.93;13.75;11.96;0.54
66311;SPS30;53114;51.138;6.008;2022-09-19T00:08:41;2.24;2.18;2.05;1.79;14.28;14.28;14.24;14.07;12.23;0.54
66311;SPS30;53114;51.138;6.008;2022-09-19T00:11:08;2.11;2.05;1.92;1.68;13.42;13.41;13.38;13.21;11.49;0.54
66311;SPS30;53114;51.138;6.008;2022-09-19T00:13:37;2.25;2.19;2.08;1.84;14.73;14.73;14.70;14.55;12.70;0.54
66311;SPS30;53114;51.138;6.008;2022-09-19T00:16:10;2.05;2.01;1.91;1.70;13.56;13.55;13.53;13.40;11.71;0.55
66311;SPS30;53114;51.138;6.008;2022-09-19T00:18:38;2.14;2.08;1.97;1.74;13.90;13.90;13.87;13.72;11.96;0.56
66311;SPS30;53114;51.138;6.008;2022-09-19T00:21:04;2.17;2.12;2.03;1.81;14.46;14.45;14.43;14.29;12.51;0.54
66311;SPS30;53114;51.138;6.008;2022-09-19T00:23:30;2.00;1.97;1.90;1.72;13.74;13.74;13.72;13.62;11.97;0.54
66311;SPS30;53114;51.138;6.008;2022-09-19T00:26:28;2.15;2.12;2.04;1.84;14.73;14.72;14.70;14.59;12.82;0.53
66311;SPS30;53114;51.138;6.008;2022-09-19T00:28:54;2.16;2.12;2.04;1.83;14.63;14.63;14.61;14.49;12.70;0.52
66311;SPS30;53114;51.138;6.008;2022-09-19T00:31:20;2.31;2.26;2.15;1.92;15.33;15.32;15.29;15.15;13.25;0.52
66311;SPS30;53114;51.138;6.008;2022-09-19T00:33:47;2.20;2.14;2.02;1.77;14.17;14.17;14.14;13.97;12.17;0.52
66311;SPS30;53114;51.138;6.008;2022-09-19T00:36:14;2.27;2.21;2.10;1.86;14.84;14.83;14.80;14.65;12.78;0.52
66311;SPS30;53114;51.138;6.008;2022-09-19T00:38:41;2.06;2.01;1.92;1.70;13.59;13.58;13.56;13.42;11.73;0.51
66311;SPS30;53114;51.138;6.008;2022-09-19T00:41:10;2.46;2.40;2.30;2.06;16.45;16.44;16.41;16.27;14.24;0.51
66311;SPS30;53114;51.138;6.008;2022-09-19T00:43:47;2.18;2.14;2.06;1.86;14.87;14.87;14.85;14.73;12.94;0.53
66311;SPS30;53114;51.138;6.008;2022-09-19T00:46:22;2.15;2.10;2.02;1.81;14.48;14.47;14.45;14.32;12.56;0.53
66311;SPS30;53114;51.138;6.008;2022-09-19T00:48:53;2.34;2.29;2.17;1.92;15.35;15.34;15.31;15.15;13.23;0.53
66311;SPS30;53114;51.138;6.008;2022-09-19T00:51:28;2.28;2.23;2.11;1.87;14.95;14.95;14.92;14.76;12.89;0.52
66311;SPS30;53114;51.138;6.008;2022-09-19T00:54:16;2.19;2.13;2.02;1.78;14.19;14.19;14.16;14.00;12.21;0.53
66311;SPS30;53114;51.138;6.008;2022-09-19T00:56:56;2.17;2.11;1.99;1.76;14.03;14.02;13.99;13.83;12.06;0.54
66311;SPS30;53114;51.138;6.008;2022-09-19T00:59:25;2.14;2.08;1.96;1.72;13.76;13.75;13.72;13.56;11.81;0.55
66311;SPS30;53114;51.138;6.008;2022-09-19T01:01:55;2.23;2.16;2.04;1.79;14.32;14.31;14.28;14.12;12.29;0.54
66311;SPS30;53114;51.138;6.008;2022-09-19T01:04:23;2.06;2.00;1.88;1.63;13.06;13.06;13.03;12.86;11.17;0.55
66311;SPS30;53114;51.138;6.008;2022-09-19T01:15:03;2.27;2.21;2.09;1.84;14.66;14.66;14.63;14.46;12.60;0.54
66311;SPS30;53114;51.138;6.008;2022-09-19T01:23:37;2.28;2.22;2.12;1.88;15.05;15.05;15.02;14.87;13.00;0.54
66311;SPS30;53114;51.138;6.008;2022-09-19T01:31:42;2.19;2.11;1.97;1.70;13.61;13.60;13.56;13.37;11.59;0.55
66311;SPS30;53114;51.138;6.008;2022-09-19T01:34:30;2.26;2.17;2.01;1.70;13.62;13.61;13.57;13.34;11.50;0.56
66311;SPS30;53114;51.138;6.008;2022-09-19T01:37:04;2.39;2.29;2.08;1.74;13.89;13.88;13.83;13.57;11.63;0.56
66311;SPS30;53114;51.138;6.008;2022-09-19T01:39:54;2.42;2.32;2.14;1.82;14.53;14.52;14.48;14.24;12.27;0.56
66311;SPS30;53114;51.138;6.008;2022-09-19T01:42:24;2.60;2.49;2.27;1.90;15.22;15.21;15.16;14.87;12.77;0.56
66311;SPS30;53114;51.138;6.008;2022-09-19T01:44:54;2.71;2.57;2.31;1.88;15.01;15.00;14.94;14.59;12.41;0.59
66311;SPS30;53114;51.138;6.008;2022-09-19T01:47:27;2.90;2.75;2.46;1.99;15.93;15.92;15.85;15.47;13.14;0.60
66311;SPS30;53114;51.138;6.008;2022-09-19T02:05:11;2.21;2.13;1.98;1.70;13.58;13.58;13.54;13.34;11.54;0.55
66311;SPS30;53114;51.138;6.008;2022-09-19T02:11:01;2.44;2.37;2.23;1.95;15.57;15.56;15.53;15.34;13.34;0.53
66311;SPS30;53114;51.138;6.008;2022-09-19T02:13:38;2.41;2.35;2.21;1.94;15.48;15.47;15.44;15.26;13.28;0.51
66311;SPS30;53114;51.138;6.008;2022-09-19T02:16:30;2.38;2.31;2.17;1.90;15.17;15.17;15.13;14.94;12.99;0.51
66311;SPS30;53114;51.138;6.008;2022-09-19T02:19:09;2.40;2.33;2.19;1.91;15.27;15.26;15.23;15.04;13.07;0.50
66311;SPS30;53114;51.138;6.008;2022-09-19T02:21:47;2.41;2.34;2.22;1.95;15.61;15.61;15.57;15.40;13.43;0.52
66311;SPS30;53114;51.138;6.008;2022-09-19T02:24:26;2.47;2.40;2.27;2.00;16.00;15.99;15.96;15.78;13.76;0.53
66311;SPS30;53114;51.138;6.008;2022-09-19T02:27:00;2.24;2.18;2.08;1.85;14.79;14.78;14.76;14.61;12.77;0.53
66311;SPS30;53114;51.138;6.008;2022-09-19T02:29:33;2.34;2.28;2.17;1.92;15.31;15.30;15.27;15.11;13.19;0.53
66311;SPS30;53114;51.138;6.008;2022-09-19T02:32:04;2.27;2.21;2.09;1.84;14.72;14.71;14.68;14.52;12.66;0.52
66311;SPS30;53114;51.138;6.008;2022-09-19T02:34:33;2.49;2.40;2.23;1.92;15.34;15.33;15.29;15.06;13.04;0.55
66311;SPS30;53114;51.138;6.008;2022-09-19T02:42:33;2.43;2.34;2.15;1.82;14.54;14.53;14.48;14.23;12.26;0.58
66311;SPS30;53114;51.138;6.008;2022-09-19T02:45:17;2.54;2.45;2.28;1.95;15.61;15.60;15.56;15.32;13.25;0.56
66311;SPS30;53114;51.138;6.008;2022-09-19T02:48:03;2.58;2.50;2.34;2.02;16.18;16.17;16.13;15.91;13.80;0.55
66311;SPS30;53114;51.138;6.008;2022-09-19T02:50:59;2.46;2.40;2.27;2.01;16.03;16.02;15.99;15.82;13.80;0.54
66311;SPS30;53114;51.138;6.008;2022-09-19T02:53:37;2.25;2.19;2.08;1.84;14.71;14.71;14.68;14.52;12.68;0.54
66311;SPS30;53114;51.138;6.008;2022-09-19T02:56:14;2.67;2.60;2.46;2.17;17.37;17.36;17.33;17.14;14.95;0.54
66311;SPS30;53114;51.138;6.008;2022-09-19T02:58:47;2.38;2.32;2.21;1.95;15.61;15.61;15.58;15.41;13.46;0.55
66311;SPS30;53114;51.138;6.008;2022-09-19T03:01:26;2.55;2.48;2.34;2.06;16.46;16.45;16.42;16.23;14.14;0.56
66311;SPS30;53114;51.138;6.008;2022-09-19T03:03:57;2.52;2.45;2.31;2.03;16.21;16.21;16.17;15.98;13.92;0.54
66311;SPS30;53114;51.138;6.008;2022-09-19T03:06:41;2.52;2.44;2.30;2.01;16.08;16.07;16.03;15.84;13.78;0.54
66311;SPS30;53114;51.138;6.008;2022-09-19T03:09:11;2.55;2.48;2.32;2.02;16.17;16.17;16.13;15.92;13.83;0.54
66311;SPS30;53114;51.138;6.008;2022-09-19T03:11:42;2.49;2.41;2.27;1.98;15.83;15.82;15.79;15.59;13.56;0.54
66311;SPS30;53114;51.138;6.008;2022-09-19T03:14:15;2.36;2.28;2.14;1.87;14.91;14.90;14.87;14.68;12.75;0.54
66311;SPS30;53114;51.138;6.008;2022-09-19T03:16:42;2.45;2.37;2.23;1.95;15.55;15.54;15.51;15.31;13.31;0.55
66311;SPS30;53114;51.138;6.008;2022-09-19T03:19:14;2.35;2.28;2.15;1.88;15.01;15.00;14.97;14.79;12.87;0.54
66311;SPS30;53114;51.138;6.008;2022-09-19T03:21:40;2.45;2.37;2.21;1.91;15.30;15.29;15.26;15.05;13.05;0.56
66311;SPS30;53114;51.138;6.008;2022-09-19T03:24:08;2.49;2.41;2.27;1.98;15.80;15.79;15.75;15.55;13.52;0.55
66311;SPS30;53114;51.138;6.008;2022-09-19T03:26:35;2.40;2.33;2.20;1.92;15.35;15.34;15.31;15.12;13.15;0.54
66311;SPS30;53114;51.138;6.008;2022-09-19T03:29:06;2.28;2.20;2.05;1.77;14.15;14.14;14.11;13.91;12.05;0.55
66311;SPS30;53114;51.138;6.008;2022-09-19T03:32:03;2.46;2.38;2.23;1.93;15.46;15.45;15.41;15.21;13.20;0.53
66311;SPS30;53114;51.138;6.008;2022-09-19T03:34:31;2.45;2.36;2.20;1.90;15.21;15.20;15.16;14.95;12.95;0.54
66311;SPS30;53114;51.138;6.008;2022-09-19T03:37:00;2.51;2.42;2.25;1.93;15.43;15.42;15.38;15.15;13.10;0.53
66311;SPS30;53114;51.138;6.008;2022-09-19T03:39:29;2.33;2.26;2.11;1.83;14.66;14.65;14.61;14.42;12.51;0.54
66311;SPS30;53114;51.138;6.008;2022-09-19T03:41:55;2.29;2.22;2.07;1.80;14.36;14.36;14.32;14.13;12.25;0.55
66311;SPS30;53114;51.138;6.008;2022-09-19T03:44:21;2.46;2.37;2.20;1.89;15.07;15.06;15.02;14.79;12.79;0.54
66311;SPS30;53114;51.138;6.008;2022-09-19T03:46:48;2.61;2.52;2.33;2.00;15.97;15.96;15.92;15.68;13.55;0.55
66311;SPS30;53114;51.138;6.008;2022-09-19T03:49:14;2.35;2.26;2.08;1.77;14.11;14.10;14.06;13.82;11.91;0.55
66311;SPS30;53114;51.138;6.008;2022-09-19T03:51:42;2.40;2.29;2.08;1.73;13.80;13.79;13.74;13.46;11.53;0.57
66311;SPS30;53114;51.138;6.008;2022-09-19T03:54:12;2.38;2.27;2.06;1.71;13.68;13.66;13.62;13.34;11.41;0.57
66311;SPS30;53114;51.138;6.008;2022-09-19T03:56:41;2.79;2.65;2.37;1.93;15.41;15.39;15.33;14.97;12.72;0.58
66311;SPS30;53114;51.138;6.008;2022-09-19T03:59:08;2.55;2.41;2.14;1.71;13.71;13.70;13.64;13.29;11.24;0.59
66311;SPS30;53114;51.138;6.008;2022-09-19T04:01:38;2.88;2.72;2.39;1.88;15.08;15.06;14.99;14.56;12.25;0.61
66311;SPS30;53114;51.138;6.008;2022-09-19T04:04:04;2.93;2.76;2.42;1.91;15.28;15.26;15.19;14.76;12.41;0.61
66311;SPS30;53114;51.138;6.008;2022-09-19T04:06:32;2.46;2.32;2.04;1.60;12.81;12.80;12.73;12.37;10.40;0.61
66311;SPS30;53114;51.138;6.008;2022-09-19T04:08:58;2.37;2.23;1.95;1.54;12.28;12.27;12.21;11.86;9.96;0.62
66311;SPS30;53114;51.138;6.008;2022-09-19T04:11:26;2.36;2.21;1.93;1.50;11.99;11.98;11.91;11.55;9.66;0.65
66311;SPS30;53114;51.138;6.008;2022-09-19T04:13:53;2.75;2.57;2.22;1.70;13.58;13.56;13.48;13.03;10.84;0.66
66311;SPS30;53114;51.138;6.008;2022-09-19T04:16:19;2.16;2.02;1.75;1.35;10.80;10.79;10.73;10.39;8.67;0.65
66311;SPS30;53114;51.138;6.008;2022-09-19T04:18:45;2.35;2.20;1.93;1.51;12.06;12.04;11.98;11.62;9.75;0.63
66311;SPS30;53114;51.138;6.008;2022-09-19T04:21:35;2.27;2.14;1.90;1.52;12.16;12.15;12.09;11.78;9.95;0.61
66311;SPS30;53114;51.138;6.008;2022-09-19T04:24:23;2.20;2.08;1.84;1.47;11.74;11.73;11.67;11.37;9.60;0.61
66311;SPS30;53114;51.138;6.008;2022-09-19T04:27:04;2.39;2.26;2.01;1.62;12.93;12.91;12.86;12.53;10.61;0.61
66311;SPS30;53114;51.138;6.008;2022-09-19T04:29:34;2.33;2.20;1.95;1.56;12.50;12.49;12.43;12.11;10.24;0.60
66311;SPS30;53114;51.138;6.008;2022-09-19T04:32:01;2.14;2.03;1.82;1.47;11.79;11.78;11.73;11.46;9.73;0.59
66311;SPS30;53114;51.138;6.008;2022-09-19T04:34:28;2.29;2.16;1.89;1.48;11.85;11.84;11.77;11.43;9.60;0.62
66311;SPS30;53114;51.138;6.008;2022-09-19T04:36:55;2.40;2.25;1.95;1.50;11.97;11.96;11.89;11.51;9.59;0.64
66311;SPS30;53114;51.138;6.008;2022-09-19T04:39:22;2.36;2.20;1.89;1.43;11.48;11.47;11.40;11.00;9.13;0.65
66311;SPS30;53114;51.138;6.008;2022-09-19T04:41:49;2.47;2.29;1.96;1.48;11.82;11.80;11.73;11.31;9.35;0.66
66311;SPS30;53114;51.138;6.008;2022-09-19T04:44:19;2.60;2.40;2.02;1.48;11.87;11.85;11.77;11.29;9.23;0.67
66311;SPS30;53114;51.138;6.008;2022-09-19T04:47:04;2.81;2.60;2.18;1.59;12.73;12.71;12.61;12.09;9.87;0.68
66311;SPS30;53114;51.138;6.008;2022-09-19T04:49:31;2.85;2.63;2.21;1.60;12.82;12.80;12.70;12.17;9.92;0.67
66311;SPS30;53114;51.138;6.008;2022-09-19T04:52:05;2.58;2.38;2.00;1.45;11.60;11.58;11.49;11.01;8.97;0.67
66311;SPS30;53114;51.138;6.008;2022-09-19T04:54:41;3.16;2.91;2.42;1.73;13.86;13.84;13.73;13.11;10.62;0.68
66311;SPS30;53114;51.138;6.008;2022-09-19T04:57:08;2.93;2.71;2.28;1.66;13.27;13.25;13.15;12.60;10.29;0.66
66311;SPS30;53114;51.138;6.008;2022-09-19T04:59:35;2.81;2.61;2.21;1.63;13.05;13.03;12.94;12.43;10.21;0.64
66311;SPS30;53114;51.138;6.008;2022-09-19T05:02:02;2.76;2.56;2.16;1.59;12.71;12.69;12.60;12.10;9.91;0.66
66311;SPS30;53114;51.138;6.008;2022-09-19T05:04:31;2.55;2.36;1.99;1.47;11.77;11.75;11.67;11.21;9.19;0.67
66311;SPS30;53114;51.138;6.008;2022-09-19T05:06:57;2.84;2.62;2.20;1.60;12.84;12.83;12.73;12.20;9.95;0.68
66311;SPS30;53114;51.138;6.008;2022-09-19T05:09:24;3.06;2.83;2.37;1.72;13.78;13.76;13.66;13.08;10.67;0.68
66311;SPS30;53114;51.138;6.008;2022-09-19T05:12:11;3.27;3.07;2.68;2.09;16.70;16.69;16.60;16.10;13.49;0.62
66311;SPS30;53114;51.138;6.008;2022-09-19T05:14:40;2.46;2.31;2.02;1.58;12.65;12.64;12.57;12.20;10.23;0.61
66311;SPS30;53114;51.138;6.008;2022-09-19T05:17:07;2.43;2.28;1.98;1.53;12.21;12.20;12.13;11.75;9.81;0.63
66311;SPS30;53114;51.138;6.008;2022-09-19T05:19:35;2.45;2.30;2.00;1.55;12.37;12.36;12.29;11.91;9.95;0.62
66311;SPS30;53114;51.138;6.008;2022-09-19T05:22:03;2.55;2.40;2.11;1.66;13.28;13.27;13.20;12.83;10.79;0.62
66311;SPS30;53114;51.138;6.008;2022-09-19T05:24:30;3.33;3.13;2.73;2.14;17.10;17.08;16.99;16.49;13.82;0.61
66311;SPS30;53114;51.138;6.008;2022-09-19T05:26:57;3.47;3.30;2.96;2.41;19.25;19.23;19.15;18.71;15.91;0.59
66311;SPS30;53114;51.138;6.008;2022-09-19T05:29:25;2.92;2.81;2.58;2.18;17.44;17.43;17.38;17.08;14.70;0.56
66311;SPS30;53114;51.138;6.008;2022-09-19T05:31:55;2.47;2.37;2.17;1.82;14.54;14.53;14.48;14.21;12.21;0.56
66311;SPS30;53114;51.138;6.008;2022-09-19T05:34:47;2.12;2.02;1.83;1.52;12.15;12.14;12.10;11.85;10.14;0.57
66311;SPS30;53114;51.138;6.008;2022-09-19T05:37:38;2.10;1.98;1.76;1.41;11.29;11.28;11.23;10.94;9.26;0.60
66311;SPS30;53114;51.138;6.008;2022-09-19T05:40:30;2.61;2.44;2.12;1.64;13.13;13.12;13.04;12.64;10.56;0.63
66311;SPS30;53114;51.138;6.008;2022-09-19T05:43:11;2.33;2.17;1.84;1.38;11.01;11.00;10.92;10.52;8.67;0.66
66311;SPS30;53114;51.138;6.008;2022-09-19T05:45:37;3.47;3.25;2.82;2.18;17.45;17.43;17.33;16.79;14.02;0.65
66311;SPS30;53114;51.138;6.008;2022-09-19T05:48:04;3.03;2.85;2.49;1.96;15.66;15.64;15.56;15.11;12.69;0.63
66311;SPS30;53114;51.138;6.008;2022-09-19T05:50:33;2.66;2.48;2.12;1.59;12.72;12.70;12.62;12.16;10.04;0.65
66311;SPS30;53114;51.138;6.008;2022-09-19T05:52:59;2.45;2.27;1.93;1.44;11.55;11.53;11.45;11.02;9.08;0.65
66311;SPS30;53114;51.138;6.008;2022-09-19T05:55:44;2.58;2.39;2.01;1.48;11.83;11.81;11.73;11.25;9.21;0.66
66311;SPS30;53114;51.138;6.008;2022-09-19T05:58:28;2.87;2.67;2.29;1.72;13.76;13.74;13.65;13.16;10.87;0.65
66311;SPS30;53114;51.138;6.008;2022-09-19T06:00:56;2.54;2.36;2.02;1.51;12.11;12.10;12.02;11.58;9.56;0.65
66311;SPS30;53114;51.138;6.008;2022-09-19T06:03:23;2.49;2.32;1.98;1.48;11.85;11.83;11.76;11.32;9.34;0.65
66311;SPS30;53114;51.138;6.008;2022-09-19T06:05:52;2.68;2.49;2.12;1.59;12.72;12.70;12.62;12.15;10.02;0.65
66311;SPS30;53114;51.138;6.008;2022-09-19T06:08:18;2.68;2.48;2.09;1.54;12.32;12.31;12.22;11.73;9.61;0.66
66311;SPS30;53114;51.138;6.008;2022-09-19T06:10:47;2.84;2.63;2.22;1.63;13.03;13.01;12.92;12.40;10.15;0.66
66311;SPS30;53114;51.138;6.008;2022-09-19T06:13:15;2.79;2.58;2.16;1.58;12.62;12.60;12.51;11.99;9.78;0.66
66311;SPS30;53114;51.138;6.008;2022-09-19T06:15:46;2.88;2.65;2.20;1.58;12.63;12.61;12.51;11.95;9.68;0.67
66311;SPS30;53114;51.138;6.008;2022-09-19T06:18:26;3.00;2.77;2.33;1.70;13.58;13.56;13.46;12.90;10.53;0.66
66311;SPS30;53114;51.138;6.008;2022-09-19T06:20:57;3.37;3.11;2.61;1.89;15.14;15.12;15.01;14.37;11.71;0.66
66311;SPS30;53114;51.138;6.008;2022-09-19T06:23:29;3.34;3.08;2.56;1.82;14.61;14.59;14.47;13.82;11.19;0.66
66311;SPS30;53114;51.138;6.008;2022-09-19T06:25:55;3.04;2.81;2.35;1.71;13.68;13.66;13.56;12.99;10.59;0.66
66311;SPS30;53114;51.138;6.008;2022-09-19T06:28:21;3.23;2.97;2.48;1.77;14.20;14.18;14.07;13.44;10.89;0.66
66311;SPS30;53114;51.138;6.008;2022-09-19T06:30:59;3.04;2.81;2.35;1.69;13.57;13.55;13.45;12.87;10.46;0.64
66311;SPS30;53114;51.138;6.008;2022-09-19T06:33:43;2.73;2.53;2.14;1.58;12.68;12.66;12.57;12.08;9.92;0.64
66311;SPS30;53114;51.138;6.008;2022-09-19T06:36:18;3.16;2.92;2.47;1.83;14.62;14.60;14.50;13.93;11.43;0.66
66311;SPS30;53114;51.138;6.008;2022-09-19T06:38:45;3.02;2.79;2.35;1.72;13.78;13.76;13.66;13.10;10.71;0.67
66311;SPS30;53114;51.138;6.008;2022-09-19T06:41:36;3.16;2.92;2.46;1.80;14.39;14.37;14.27;13.68;11.19;0.67
66311;SPS30;53114;51.138;6.008;2022-09-19T06:44:19;3.00;2.79;2.37;1.76;14.09;14.07;13.97;13.44;11.06;0.65
66311;SPS30;53114;51.138;6.008;2022-09-19T06:47:03;3.46;3.19;2.67;1.94;15.50;15.48;15.36;14.71;11.98;0.68
66311;SPS30;53114;51.138;6.008;2022-09-19T06:49:41;3.34;3.06;2.52;1.76;14.10;14.08;13.96;13.27;10.65;0.71
66311;SPS30;53114;51.138;6.008;2022-09-19T06:52:14;3.31;3.05;2.55;1.84;14.70;14.68;14.56;13.93;11.32;0.66
66311;SPS30;53114;51.138;6.008;2022-09-19T06:54:40;3.15;2.92;2.48;1.84;14.69;14.67;14.57;14.01;11.52;0.64
66311;SPS30;53114;51.138;6.008;2022-09-19T06:57:07;2.89;2.69;2.31;1.75;13.98;13.97;13.88;13.39;11.10;0.62
66311;SPS30;53114;51.138;6.008;2022-09-19T06:59:33;2.99;2.81;2.44;1.89;15.10;15.08;15.00;14.53;12.14;0.60
66311;SPS30;53114;51.138;6.008;2022-09-19T07:01:59;2.79;2.63;2.33;1.86;14.89;14.88;14.81;14.42;12.18;0.60
66311;SPS30;53114;51.138;6.008;2022-09-19T07:04:25;2.98;2.80;2.46;1.93;15.43;15.41;15.33;14.89;12.51;0.62
66311;SPS30;53114;51.138;6.008;2022-09-19T07:07:02;2.80;2.63;2.29;1.79;14.30;14.29;14.21;13.78;11.55;0.62
66311;SPS30;53114;51.138;6.008;2022-09-19T07:09:30;2.88;2.70;2.35;1.82;14.58;14.57;14.49;14.04;11.75;0.62
66311;SPS30;53114;51.138;6.008;2022-09-19T07:11:57;3.12;2.92;2.53;1.95;15.58;15.56;15.48;14.98;12.49;0.65
66311;SPS30;53114;51.138;6.008;2022-09-19T07:14:25;3.27;3.06;2.64;2.03;16.21;16.19;16.09;15.56;12.96;0.66
66311;SPS30;53114;51.138;6.008;2022-09-19T07:16:51;2.91;2.72;2.36;1.81;14.51;14.49;14.41;13.94;11.63;0.64
66311;SPS30;53114;51.138;6.008;2022-09-19T07:19:17;3.23;3.01;2.57;1.93;15.46;15.44;15.35;14.79;12.22;0.64
66311;SPS30;53114;51.138;6.008;2022-09-19T07:21:51;3.17;2.95;2.51;1.87;15.01;14.99;14.89;14.33;11.82;0.65
66311;SPS30;53114;51.138;6.008;2022-09-19T07:24:28;2.98;2.79;2.43;1.89;15.12;15.10;15.02;14.56;12.18;0.63
66311;SPS30;53114;51.138;6.008;2022-09-19T07:27:03;3.02;2.83;2.45;1.89;15.14;15.13;15.04;14.56;12.16;0.63
66311;SPS30;53114;51.138;6.008;2022-09-19T07:29:30;2.88;2.70;2.35;1.82;14.60;14.58;14.50;14.05;11.75;0.62
66311;SPS30;53114;51.138;6.008;2022-09-19T07:31:56;2.54;2.40;2.13;1.70;13.62;13.61;13.55;13.20;11.16;0.59
66311;SPS30;53114;51.138;6.008;2022-09-19T07:34:23;2.71;2.55;2.24;1.77;14.15;14.14;14.07;13.67;11.50;0.59
66311;SPS30;53114;51.138;6.008;2022-09-19T07:36:52;2.98;2.80;2.43;1.88;15.02;15.01;14.92;14.45;12.07;0.62
66311;SPS30;53114;51.138;6.008;2022-09-19T07:39:18;3.02;2.82;2.42;1.84;14.76;14.74;14.65;14.15;11.75;0.62
66311;SPS30;53114;51.138;6.008;2022-09-19T07:42:17;3.13;2.93;2.52;1.91;15.32;15.30;15.21;14.69;12.19;0.60
66311;SPS30;53114;51.138;6.008;2022-09-19T07:44:51;2.91;2.72;2.35;1.80;14.42;14.41;14.32;13.85;11.54;0.59
66311;SPS30;53114;51.138;6.008;2022-09-19T07:47:43;3.04;2.84;2.44;1.85;14.82;14.80;14.71;14.21;11.79;0.61
66311;SPS30;53114;51.138;6.008;2022-09-19T07:50:21;3.22;3.00;2.57;1.93;15.45;15.43;15.33;14.78;12.22;0.63
66311;SPS30;53114;51.138;6.008;2022-09-19T07:53:01;3.20;2.97;2.52;1.87;14.93;14.91;14.81;14.24;11.70;0.65
66311;SPS30;53114;51.138;6.008;2022-09-19T07:55:31;2.90;2.71;2.32;1.76;14.09;14.07;13.98;13.50;11.19;0.63
66311;SPS30;53114;51.138;6.008;2022-09-19T07:57:58;3.42;3.20;2.75;2.10;16.78;16.76;16.66;16.09;13.37;0.62
66311;SPS30;53114;51.138;6.008;2022-09-19T08:00:38;3.14;2.93;2.54;1.95;15.58;15.56;15.47;14.96;12.46;0.61
66311;SPS30;53114;51.138;6.008;2022-09-19T08:03:06;3.34;3.13;2.70;2.07;16.60;16.58;16.49;15.95;13.29;0.61
66311;SPS30;53114;51.138;6.008;2022-09-19T08:05:38;3.13;2.92;2.51;1.91;15.26;15.25;15.15;14.63;12.14;0.64
66311;SPS30;53114;51.138;6.008;2022-09-19T08:08:10;3.24;3.02;2.59;1.96;15.66;15.64;15.55;15.00;12.42;0.65
66311;SPS30;53114;51.138;6.008;2022-09-19T08:10:38;2.89;2.70;2.34;1.79;14.36;14.35;14.26;13.80;11.50;0.63
66311;SPS30;53114;51.138;6.008;2022-09-19T08:13:06;2.83;2.63;2.25;1.69;13.53;13.51;13.43;12.94;10.70;0.64
66311;SPS30;53114;51.138;6.008;2022-09-19T08:15:33;2.62;2.44;2.09;1.58;12.61;12.60;12.52;12.07;9.99;0.63
66311;SPS30;53114;51.138;6.008;2022-09-19T08:18:14;3.01;2.80;2.39;1.79;14.30;14.29;14.19;13.67;11.28;0.64
66311;SPS30;53114;51.138;6.008;2022-09-19T08:20:42;3.03;2.80;2.36;1.73;13.88;13.86;13.76;13.20;10.81;0.65
66311;SPS30;53114;51.138;6.008;2022-09-19T08:23:10;3.00;2.77;2.32;1.68;13.44;13.42;13.32;12.75;10.38;0.68
66311;SPS30;53114;51.138;6.008;2022-09-19T08:25:39;3.15;2.89;2.39;1.68;13.48;13.46;13.35;12.72;10.24;0.70
66311;SPS30;53114;51.138;6.008;2022-09-19T08:28:12;3.75;3.44;2.83;1.98;15.89;15.86;15.72;14.96;12.01;0.69
66311;SPS30;53114;51.138;6.008;2022-09-19T08:30:39;3.51;3.23;2.67;1.88;15.08;15.05;14.93;14.22;11.46;0.69
66311;SPS30;53114;51.138;6.008;2022-09-19T08:33:09;3.67;3.38;2.80;2.00;16.00;15.97;15.84;15.12;12.23;0.69
66311;SPS30;53114;51.138;6.008;2022-09-19T08:35:36;3.72;3.43;2.85;2.04;16.31;16.28;16.15;15.42;12.49;0.70
66311;SPS30;53114;51.138;6.008;2022-09-19T08:38:08;3.74;3.45;2.87;2.05;16.44;16.41;16.28;15.55;12.60;0.72
66311;SPS30;53114;51.138;6.008;2022-09-19T08:43:11;3.36;3.11;2.62;1.92;15.39;15.36;15.25;14.64;11.98;0.70
66311;SPS30;53114;51.138;6.008;2022-09-19T08:48:23;3.28;3.02;2.51;1.79;14.31;14.29;14.17;13.53;10.94;0.71
66311;SPS30;53114;51.138;6.008;2022-09-19T08:50:57;3.16;2.91;2.43;1.75;14.05;14.03;13.92;13.31;10.82;0.69
66311;SPS30;53114;51.138;6.008;2022-09-19T08:53:31;3.43;3.16;2.64;1.89;15.14;15.12;15.00;14.34;11.63;0.70
66311;SPS30;53114;51.138;6.008;2022-09-19T08:56:04;3.19;2.95;2.50;1.86;14.85;14.83;14.73;14.16;11.63;0.66
66311;SPS30;53114;51.138;6.008;2022-09-19T08:58:32;3.22;2.98;2.51;1.84;14.72;14.70;14.60;14.00;11.45;0.67
66311;SPS30;53114;51.138;6.008;2022-09-19T09:01:13;3.49;3.22;2.69;1.95;15.61;15.59;15.47;14.81;12.06;0.67
66311;SPS30;53114;51.138;6.008;2022-09-19T09:04:14;2.78;2.56;2.12;1.51;12.12;12.10;12.00;11.46;9.27;0.66
66311;SPS30;53114;51.138;6.008;2022-09-19T09:07:02;3.21;2.94;2.42;1.69;13.56;13.53;13.42;12.76;10.24;0.68
66311;SPS30;53114;51.138;6.008;2022-09-19T09:17:32;3.46;3.14;2.52;1.68;13.45;13.42;13.28;12.51;9.81;0.73
66311;SPS30;53114;51.138;6.008;2022-09-19T09:23:02;3.54;3.22;2.59;1.74;13.93;13.90;13.76;12.98;10.21;0.74
66311;SPS30;53114;51.138;6.008;2022-09-19T09:26:04;3.00;2.72;2.17;1.43;11.46;11.44;11.32;10.63;8.29;0.76
66311;SPS30;53114;51.138;6.008;2022-09-19T09:28:48;3.28;2.96;2.34;1.50;12.05;12.02;11.88;11.11;8.56;0.78
66311;SPS30;53114;51.138;6.008;2022-09-19T09:31:27;3.40;3.07;2.45;1.60;12.80;12.77;12.63;11.85;9.20;0.76
66311;SPS30;53114;51.138;6.008;2022-09-19T09:34:17;3.65;3.32;2.69;1.82;14.58;14.56;14.42;13.62;10.77;0.72
66311;SPS30;53114;51.138;6.008;2022-09-19T09:37:03;3.60;3.26;2.60;1.70;13.61;13.58;13.43;12.60;9.79;0.74
66311;SPS30;53114;51.138;6.008;2022-09-19T09:40:08;3.49;3.15;2.51;1.63;13.07;13.05;12.90;12.09;9.38;0.74
66311;SPS30;53114;51.138;6.008;2022-09-19T09:43:05;3.44;3.11;2.46;1.58;12.68;12.65;12.51;11.70;9.02;0.75
66311;SPS30;53114;51.138;6.008;2022-09-19T09:45:41;3.62;3.28;2.60;1.69;13.58;13.55;13.40;12.56;9.74;0.76
66311;SPS30;53114;51.138;6.008;2022-09-19T09:48:23;3.43;3.09;2.42;1.54;12.34;12.31;12.17;11.34;8.68;0.77
66311;SPS30;53114;51.138;6.008;2022-09-19T10:02:31;3.41;3.08;2.44;1.59;12.72;12.69;12.55;11.76;9.10;0.76
66311;SPS30;53114;51.138;6.008;2022-09-19T10:05:43;3.31;2.98;2.34;1.48;11.90;11.87;11.73;10.93;8.36;0.78
66311;SPS30;53114;51.138;6.008;2022-09-19T10:08:16;3.59;3.23;2.53;1.59;12.78;12.75;12.59;11.72;8.93;0.79
66311;SPS30;53114;51.138;6.008;2022-09-19T10:11:14;3.74;3.36;2.63;1.66;13.28;13.25;13.09;12.18;9.28;0.79
66311;SPS30;53114;51.138;6.008;2022-09-19T10:13:50;3.86;3.47;2.70;1.68;13.49;13.46;13.28;12.33;9.33;0.79
66311;SPS30;53114;51.138;6.008;2022-09-19T10:16:32;3.46;3.12;2.45;1.55;12.42;12.39;12.24;11.40;8.72;0.77
66311;SPS30;53114;51.138;6.008;2022-09-19T10:21:54;3.26;2.95;2.33;1.50;12.06;12.04;11.90;11.13;8.60;0.77
66311;SPS30;53114;51.138;6.008;2022-09-19T10:32:24;2.97;2.66;2.06;1.26;10.08;10.05;9.92;9.17;6.87;0.81
66311;SPS30;53114;51.138;6.008;2022-09-19T10:38:11;3.48;3.10;2.35;1.37;10.97;10.94;10.77;9.84;7.16;0.85
66311;SPS30;53114;51.138;6.008;2022-09-19T10:43:37;3.77;3.35;2.52;1.44;11.56;11.53;11.34;10.32;7.42;0.85
66311;SPS30;53114;51.138;6.008;2022-09-19T10:46:19;3.62;3.21;2.42;1.39;11.15;11.12;10.94;9.96;7.18;0.86
66311;SPS30;53114;51.138;6.008;2022-09-19T10:51:48;3.28;2.91;2.19;1.26;10.09;10.06;9.90;9.01;6.49;0.87
66311;SPS30;53114;51.138;6.008;2022-09-19T10:54:29;3.32;2.93;2.17;1.18;9.48;9.45;9.28;8.33;5.79;0.91
66311;SPS30;53114;51.138;6.008;2022-09-19T10:57:46;3.28;2.89;2.14;1.17;9.39;9.36;9.19;8.26;5.75;0.92
66311;SPS30;53114;51.138;6.008;2022-09-19T11:05:30;2.78;2.47;1.85;1.05;8.41;8.38;8.24;7.48;5.34;0.87
66311;SPS30;53114;51.138;6.008;2022-09-19T11:08:00;3.17;2.80;2.10;1.17;9.43;9.40;9.25;8.37;5.94;0.87
66311;SPS30;53114;51.138;6.008;2022-09-19T11:10:34;2.61;2.31;1.73;0.97;7.80;7.77;7.65;6.92;4.92;0.87
66311;SPS30;53114;51.138;6.008;2022-09-19T11:13:07;3.48;3.07;2.28;1.25;10.06;10.03;9.85;8.87;6.21;0.89
66311;SPS30;53114;51.138;6.008;2022-09-19T11:23:58;3.54;3.11;2.27;1.20;9.62;9.59;9.40;8.37;5.67;0.93